Latest Coastal Weather Observations for Cape Jaffa

IDS60701

Issued at 9:35 am CDT Thursday 23 October 2014 (issued every 10 minutes, with the page automatically refreshed every 10 minutes)

About coastal observations | Map of coastal stations | Coastal observations for SA | Marine services | Other Formats
Station Details ID: 026095 Name: THE LIMESTONE Lat: -36.97 Lon: 139.72 Height: 17.0 m
Data from the previous 72 hours. | See also: Recent months at Cape Jaffa
Date/Time
CDT
Temp

°C
Wind Pressure Rain
since 9am
mm
Weather Cloud Vis
km
Sea
Height
m
Swell
Dir
 
Speed
knots
Gust
knots
hPa Trend Height
m
Period
s
Dir
23/09:30am 16.3 SSE 11 14 1018.5 - 0.0 - - - - - - -
23/09:00am 14.8 SE 12 18 1018.6 - 0.0 - - - - - - -
23/08:30am 14.4 SE 13 18 1018.9 - 0.0 - - - - - - -
23/08:00am 13.9 SE 12 18 1019.0 - 0.0 - - - - - - -
23/07:30am 13.5 SE 13 19 1018.8 - 0.0 - - - - - - -
23/07:00am 13.3 SE 15 20 1018.7 - 0.0 - - - - - - -
23/06:30am 13.3 SSE 15 24 1018.7 - 0.0 - - - - - - -
23/06:00am 13.3 SSE 15 20 1018.5 - 0.0 - - - - - - -
23/05:30am 13.2 SSE 13 19 1018.4 - 0.0 - - - - - - -
23/05:00am 13.0 SSE 14 22 1018.4 - 0.0 - - - - - - -
23/04:30am 13.0 SSE 12 17 1018.5 - 0.0 - - - - - - -
23/04:00am 13.1 SSE 13 19 1018.7 - 0.0 - - - - - - -
23/03:30am 13.1 SSE 15 23 1018.6 - 0.0 - - - - - - -
23/03:00am 13.2 SSE 14 20 1018.8 - 0.0 - - - - - - -
23/02:30am 13.4 SSE 15 21 1018.8 - 0.0 - - - - - - -
23/02:00am 13.5 SSE 14 20 1019.0 - 0.0 - - - - - - -
23/01:30am 13.8 SSE 13 20 1019.3 - 0.0 - - - - - - -
23/01:00am 13.8 SSE 13 19 1019.6 - 0.0 - - - - - - -
23/12:30am 13.6 SSE 14 20 1019.7 - 0.0 - - - - - - -
23/12:00am 13.8 SSE 14 21 1019.8 - 0.0 - - - - - - -
 
Date/Time
CDT
Temp

°C
Wind Pressure Rain
since 9am
mm
Weather Cloud Vis
km
Sea
Height
m
Swell
Dir
 
Speed
knots
Gust
knots
hPa Trend Height
m
Period
s
Dir
22/11:30pm 14.1 SSE 12 19 1020.0 - 0.0 - - - - - - -
22/11:00pm 14.0 S 15 20 1020.1 - 0.0 - - - - - - -
22/10:30pm 14.2 SSE 15 21 1020.1 - 0.0 - - - - - - -
22/10:00pm 14.4 SSE 14 20 1020.0 - 0.0 - - - - - - -
22/09:30pm 14.6 SSE 14 19 1020.0 - 0.0 - - - - - - -
22/09:00pm 14.7 SSE 18 27 1019.9 - 0.0 - - - - - - -
22/08:53pm 14.6 SSE 16 27 1019.7 - 0.0 - - - - - - -
22/08:30pm 14.6 SSE 16 23 1019.5 - 0.0 - - - - - - -
22/08:13pm 14.5 S 17 28 1019.1 - 0.0 - - - - - - -
22/08:00pm 14.4 S 20 28 1018.8 - 0.0 - - - - - - -
22/07:30pm 14.3 S 21 27 1018.5 - 0.0 - - - - - - -
22/07:00pm 14.4 S 22 29 1018.1 - 0.0 - - - - - - -
22/06:43pm 14.5 S 20 30 1018.1 - 0.0 - - - - - - -
22/06:30pm 14.7 S 23 29 1017.8 - 0.0 - - - - - - -
22/06:00pm 15.2 S 21 28 1017.6 - 0.0 - - - - - - -
22/05:30pm 15.4 S 23 28 1017.4 - 0.0 - - - - - - -
22/05:00pm 15.9 S 24 28 1017.2 - 0.0 - - - - - - -
22/04:30pm 16.9 S 22 28 1017.1 - 0.0 - - - - - - -
22/04:00pm 16.8 S 23 29 1017.1 - 0.0 - - - - - - -
22/03:30pm 16.9 S 23 28 1017.1 - 0.0 - - - - - - -
22/03:00pm 17.2 S 25 30 1017.1 - 0.0 - - - - - - -
22/02:30pm 17.9 S 24 30 1017.0 - 0.0 - - - - - - -
22/02:00pm 17.7 S 23 28 1017.3 - 0.0 - - - - - - -
22/01:30pm 18.6 S 24 28 1017.4 - 0.0 - - - - - - -
22/01:00pm 18.5 S 25 29 1017.2 - 0.0 - - - - - - -
22/12:30pm 18.5 SSW 24 29 1016.8 - 0.0 - - - - - - -
22/12:00pm 18.5 SSW 23 27 1016.9 - 0.0 - - - - - - -
22/11:30am 19.0 SSW 17 22 1016.8 - 0.0 - - - - - - -
22/11:00am 19.7 SSW 15 19 1016.8 - 0.0 - - - - - - -
22/10:30am 20.1 S 12 15 1017.0 - 0.0 - - - - - - -
22/10:00am 19.4 SSW 12 16 1017.2 - 0.0 - - - - - - -
22/09:30am 21.3 S 9 12 1016.9 - 0.0 - - - - - - -
22/09:00am 21.9 SW 9 12 1017.1 - 0.0 - - - - - - -
22/08:30am 22.4 E 7 10 1016.6 - 0.0 - - - - - - -
22/08:00am 21.1 ENE 6 7 1016.3 - 0.0 - - - - - - -
22/07:30am 20.9 E 8 10 1015.8 - 0.0 - - - - - - -
22/07:00am 18.7 E 8 9 1015.8 - 0.0 - - - - - - -
22/06:30am 16.8 E 9 10 1015.8 - 0.0 - - - - - - -
22/06:00am 16.8 E 9 10 1015.7 - 0.0 - - - - - - -
22/05:30am 17.5 ENE 8 10 1015.6 - 0.0 - - - - - - -
22/05:00am 17.7 ENE 9 9 1015.6 - 0.0 - - - - - - -
22/04:30am 19.1 NE 6 7 1015.9 - 0.0 - - - - - - -
22/04:00am 20.2 NNE 6 7 1016.2 - 0.0 - - - - - - -
22/03:30am 19.7 N 7 8 1016.4 - 0.0 - - - - - - -
22/03:00am 21.5 N 5 7 1016.6 - 0.0 - - - - - - -
22/02:30am 22.4 N 9 12 1017.0 - 0.0 - - - - - - -
22/02:00am 21.3 NW 9 14 1017.6 - 0.0 - - - - - - -
22/01:54am 20.7 WNW 10 17 1017.5 - 0.0 - - - - - - -
22/01:30am 15.6 N 4 9 1017.3 - 0.0 - - - - - - -
22/01:00am 19.4 ENE 3 4 1017.0 - 0.0 - - - - - - -
22/12:30am 19.3 ENE 6 7 1017.0 - 0.0 - - - - - - -
22/12:00am 19.7 NE 7 8 1017.1 - 0.0 - - - - - - -
 
Date/Time
CDT
Temp

°C
Wind Pressure Rain
since 9am
mm
Weather Cloud Vis
km
Sea
Height
m
Swell
Dir
 
Speed
knots
Gust
knots
hPa Trend Height
m
Period
s
Dir
21/11:30pm 22.2 ENE 9 11 1016.9 - 0.0 - - - - - - -
21/11:00pm 23.0 ENE 10 13 1017.1 - 0.0 - - - - - - -
21/10:30pm 23.6 ENE 10 12 1017.2 - 0.0 - - - - - - -
21/10:00pm 23.0 E 9 11 1017.5 - 0.0 - - - - - - -
21/09:30pm 23.9 E 11 12 1017.3 - 0.0 - - - - - - -
21/09:00pm 24.4 E 9 10 1017.4 - 0.0 - - - - - - -
21/08:30pm 25.1 E 9 10 1017.1 - 0.0 - - - - - - -
21/08:00pm 26.3 E 9 10 1017.0 - 0.0 - - - - - - -
21/07:30pm 27.3 E 10 11 1016.9 - 0.0 - - - - - - -
21/07:00pm 27.7 E 8 9 1017.0 - 0.0 - - - - - - -
21/06:30pm 29.5 E 7 8 1017.1 - 0.0 - - - - - - -
21/06:00pm 31.7 ENE 8 11 1017.2 - 0.0 - - - - - - -
21/05:30pm 33.2 NE 7 9 1017.3 - 0.0 - - - - - - -
21/05:00pm 33.0 NE 8 12 1017.6 - 0.0 - - - - - - -
21/04:30pm 33.0 NNE 10 13 1017.7 - 0.0 - - - - - - -
21/04:00pm 31.6 NNE 11 13 1017.8 - 0.0 - - - - - - -
21/03:30pm 32.9 NNE 10 16 1018.3 - 0.0 - - - - - - -
21/03:00pm 32.7 NE 10 14 1018.8 - 0.0 - - - - - - -
21/02:30pm 31.9 NNE 10 13 1019.3 - 0.0 - - - - - - -
21/02:00pm 31.8 NNE 10 15 1019.8 - 0.0 - - - - - - -
21/01:30pm 30.9 ENE 11 16 1020.3 - 0.0 - - - - - - -
21/01:00pm 29.9 NE 9 13 1020.8 - 0.0 - - - - - - -
21/12:30pm 28.6 NE 10 13 1021.3 - 0.0 - - - - - - -
21/12:00pm 27.1 NNE 9 12 1021.8 - 0.0 - - - - - - -
21/11:30am 26.5 NE 11 14 1022.2 - 0.0 - - - - - - -
21/11:00am 24.9 NNE 11 14 1022.3 - 0.0 - - - - - - -
21/10:30am 23.7 NNE 12 14 1022.6 - 0.0 - - - - - - -
21/10:00am 21.7 ENE 14 17 1022.8 - 0.0 - - - - - - -
21/09:30am 19.7 ENE 14 17 1022.7 - 0.0 - - - - - - -
21/09:00am 16.9 ENE 12 15 1022.7 - 0.0 - - - - - - -
21/08:30am 14.9 ENE 11 15 1022.9 - 0.0 - - - - - - -
21/08:00am 12.1 ENE 9 11 1023.1 - 0.0 - - - - - - -
21/07:30am 10.1 ENE 7 9 1022.9 - 0.0 - - - - - - -
21/07:00am 10.3 E 8 11 1022.4 - 0.0 - - - - - - -
21/06:30am 10.3 E 10 12 1022.0 - 0.0 - - - - - - -
21/06:00am 10.7 E 11 14 1021.5 - 0.0 - - - - - - -
21/05:30am 11.0 E 12 14 1021.3 - 0.0 - - - - - - -
21/05:00am 11.4 E 12 15 1021.3 - 0.0 - - - - - - -
21/04:30am 11.8 E 13 17 1021.2 - 0.0 - - - - - - -
21/04:00am 11.9 E 13 15 1021.6 - 0.0 - - - - - - -
21/03:30am 12.1 E 13 16 1021.6 - 0.0 - - - - - - -
21/03:00am 12.3 E 13 16 1021.8 - 0.0 - - - - - - -
21/02:30am 12.7 E 14 18 1022.0 - 0.0 - - - - - - -
21/02:00am 13.2 E 14 17 1022.3 - 0.0 - - - - - - -
21/01:30am 13.4 E 13 16 1022.8 - 0.0 - - - - - - -
21/01:00am 13.8 E 11 15 1023.4 - 0.0 - - - - - - -
21/12:30am 14.2 E 11 16 1023.6 - 0.0 - - - - - - -
21/12:00am 14.6 E 10 16 1024.0 - 0.0 - - - - - - -
 
Date/Time
CDT
Temp

°C
Wind Pressure Rain
since 9am
mm
Weather Cloud Vis
km
Sea
Height
m
Swell
Dir
 
Speed
knots
Gust
knots
hPa Trend Height
m
Period
s
Dir
20/11:30pm 15.3 E 9 13 1024.1 - 0.0 - - - - - - -
20/11:00pm 15.6 ESE 8 11 1024.1 - 0.0 - - - - - - -
20/10:30pm 16.1 ESE 8 13 1024.2 - 0.0 - - - - - - -
20/10:00pm 16.7 ESE 8 11 1024.3 - 0.0 - - - - - - -
20/09:30pm 16.9 SE 7 11 1024.5 - 0.0 - - - - - - -
20/09:00pm 16.8 SE 6 8 1024.5 - 0.0 - - - - - - -
20/08:30pm 17.1 ESE 5 9 1024.2 - 0.0 - - - - - - -
20/08:00pm 17.5 SE 6 7 1024.0 - 0.0 - - - - - - -
20/07:30pm 19.1 SE 6 9 1023.7 - 0.0 - - - - - - -
20/07:00pm 20.1 ESE 7 10 1023.4 - 0.0 - - - - - - -
20/06:30pm 21.0 ESE 6 10 1023.4 - 0.0 - - - - - - -
20/06:00pm 21.7 ESE 8 12 1023.3 - 0.0 - - - - - - -
20/05:30pm 22.3 ESE 10 15 1023.3 - 0.0 - - - - - - -
20/05:00pm 23.4 ESE 8 10 1023.5 - 0.0 - - - - - - -
20/04:30pm 22.9 ESE 7 10 1023.8 - 0.0 - - - - - - -
20/04:00pm 23.5 ESE 5 8 1024.2 - 0.0 - - - - - - -
20/03:30pm 23.2 ESE 6 9 1024.4 - 0.0 - - - - - - -
20/03:00pm 23.0 E 5 10 1024.9 - 0.0 - - - - - - -
20/02:30pm 22.0 S 5 12 1025.4 - 0.0 - - - - - - -
20/02:00pm 22.1 ENE 6 10 1025.9 - 0.0 - - - - - - -
20/01:30pm 21.6 ENE 5 10 1026.3 - 0.0 - - - - - - -
20/01:00pm 21.4 ENE 7 18 1026.3 - 0.0 - - - - - - -
20/12:30pm 19.8 ENE 9 13 1026.8 - 0.0 - - - - - - -
20/12:00pm 19.0 E 8 13 1027.1 - 0.0 - - - - - - -
20/11:30am 18.2 E 7 12 1027.7 - 0.0 - - - - - - -
20/11:00am 16.6 E 10 13 1028.2 - 0.0 - - - - - - -
20/10:30am 15.6 E 11 15 1028.5 - 0.0 - - - - - - -
20/10:00am 14.5 E 13 16 1028.5 - 0.0 - - - - - - -

Other Formats:

Comma delimited format used in spreadsheet applications
http://www.bom.gov.au/fwo/IDS60701/IDS60701.94813.axf

JavaScript Object Notation format (JSON) in row-major order
http://www.bom.gov.au/fwo/IDS60701/IDS60701.94813.json